Decoded Metar for FJDG (DIEGO GARCIA ISLAND in DIEGO GARCIA ISLAND) (IATA:N/A) | Meteo·Mobile Aviation Weather
aviador You're here:

FJDG Decoded Metar

DIEGO GARCIA ISLAND in DIEGO GARCIA ISLAND
Report Time2019-11-12 01:55:00
UTC Time2019-11-12 02:44:35
Flight Rules vfr VFR
Wind080° at 13 Gusting to 20 kt
W.Decomp.*RWY 13: 9.7 kt HW 8.7 kt LCW
Visibility9999 m
Phenomena:N/A
Clouds:Few 026 Hf
Expected CloudBase > 2,000 ft AGL from Temp-Dew spread
CeilingNone
Temp29°C (ISA +14)
Dew Point24°C (74% RH)
Heat Index33.5°C
QNH1010 hPa
Density Alt2,113 ft
Elevation10 ft
Report Wrong Elevation
Raw Report
FJDG 120155Z 08013G20KT 9999 FEW026 29/24 A2983 RMK SLP098
T02890236=

Extra information for FJDG:More info

Metar Taf Metar & Taf Last 4 Metars F.Rules Stats Wind Profile Meteogram Temp Stats Airport Information Weather charts Add Link Nearby VenuesMetar ALERT Operation Metar Decoded Social comments